sensor_id;sensor_type;location;lat;lon;timestamp;temperature;humidity
5164;DHT22;2601;50.224;10.126;2023-06-14T00:00:11;20.90;81.80
5164;DHT22;2601;50.224;10.126;2023-06-14T00:02:39;20.90;82.00
5164;DHT22;2601;50.224;10.126;2023-06-14T00:05:08;20.90;82.00
5164;DHT22;2601;50.224;10.126;2023-06-14T00:07:40;20.90;81.50
5164;DHT22;2601;50.224;10.126;2023-06-14T00:10:10;20.90;81.70
5164;DHT22;2601;50.224;10.126;2023-06-14T00:12:38;20.90;81.90
5164;DHT22;2601;50.224;10.126;2023-06-14T00:15:04;20.90;81.30
5164;DHT22;2601;50.224;10.126;2023-06-14T00:17:30;20.90;81.50
5164;DHT22;2601;50.224;10.126;2023-06-14T00:19:57;20.90;81.60
5164;DHT22;2601;50.224;10.126;2023-06-14T00:22:23;20.90;81.60
5164;DHT22;2601;50.224;10.126;2023-06-14T00:24:54;20.90;81.60
5164;DHT22;2601;50.224;10.126;2023-06-14T00:27:19;20.90;81.30
5164;DHT22;2601;50.224;10.126;2023-06-14T00:29:45;20.90;81.90
5164;DHT22;2601;50.224;10.126;2023-06-14T00:32:11;20.90;81.40
5164;DHT22;2601;50.224;10.126;2023-06-14T00:34:36;20.90;81.40
5164;DHT22;2601;50.224;10.126;2023-06-14T00:37:02;20.90;81.60
5164;DHT22;2601;50.224;10.126;2023-06-14T00:39:27;20.90;82.50
5164;DHT22;2601;50.224;10.126;2023-06-14T00:41:53;20.90;81.70
5164;DHT22;2601;50.224;10.126;2023-06-14T00:44:18;20.90;81.40
5164;DHT22;2601;50.224;10.126;2023-06-14T00:46:45;20.90;81.50
5164;DHT22;2601;50.224;10.126;2023-06-14T00:49:14;20.90;81.40
5164;DHT22;2601;50.224;10.126;2023-06-14T00:51:41;20.90;81.50
5164;DHT22;2601;50.224;10.126;2023-06-14T00:54:06;20.90;81.60
5164;DHT22;2601;50.224;10.126;2023-06-14T00:56:32;20.90;81.60
5164;DHT22;2601;50.224;10.126;2023-06-14T00:58:58;20.90;81.20
5164;DHT22;2601;50.224;10.126;2023-06-14T01:01:24;20.90;81.60
5164;DHT22;2601;50.224;10.126;2023-06-14T01:03:49;20.80;81.20
5164;DHT22;2601;50.224;10.126;2023-06-14T01:09:07;20.80;81.50
5164;DHT22;2601;50.224;10.126;2023-06-14T01:11:58;20.80;81.30
5164;DHT22;2601;50.224;10.126;2023-06-14T01:14:25;20.80;81.30
5164;DHT22;2601;50.224;10.126;2023-06-14T01:16:53;20.80;81.40
5164;DHT22;2601;50.224;10.126;2023-06-14T01:19:18;20.80;81.30
5164;DHT22;2601;50.224;10.126;2023-06-14T01:21:48;20.80;81.50
5164;DHT22;2601;50.224;10.126;2023-06-14T01:24:16;20.80;81.60
5164;DHT22;2601;50.224;10.126;2023-06-14T01:26:45;20.80;81.70
5164;DHT22;2601;50.224;10.126;2023-06-14T01:29:17;20.80;81.50
5164;DHT22;2601;50.224;10.126;2023-06-14T01:31:43;20.80;81.50
5164;DHT22;2601;50.224;10.126;2023-06-14T01:34:09;20.80;81.50
5164;DHT22;2601;50.224;10.126;2023-06-14T01:36:36;20.80;81.50
5164;DHT22;2601;50.224;10.126;2023-06-14T01:39:06;20.80;81.50
5164;DHT22;2601;50.224;10.126;2023-06-14T01:41:33;20.80;81.80
5164;DHT22;2601;50.224;10.126;2023-06-14T01:44:00;20.80;81.60
5164;DHT22;2601;50.224;10.126;2023-06-14T01:46:26;20.80;81.60
5164;DHT22;2601;50.224;10.126;2023-06-14T01:48:51;20.80;81.60
5164;DHT22;2601;50.224;10.126;2023-06-14T01:51:17;20.80;81.50
5164;DHT22;2601;50.224;10.126;2023-06-14T01:53:43;20.80;81.50
5164;DHT22;2601;50.224;10.126;2023-06-14T01:56:08;20.80;81.50
5164;DHT22;2601;50.224;10.126;2023-06-14T01:58:34;20.80;81.20
5164;DHT22;2601;50.224;10.126;2023-06-14T02:01:00;20.80;81.60
5164;DHT22;2601;50.224;10.126;2023-06-14T02:03:26;20.80;81.30
5164;DHT22;2601;50.224;10.126;2023-06-14T02:05:52;20.80;81.30
5164;DHT22;2601;50.224;10.126;2023-06-14T02:08:19;20.80;81.10
5164;DHT22;2601;50.224;10.126;2023-06-14T02:10:45;20.80;81.20
5164;DHT22;2601;50.224;10.126;2023-06-14T02:13:10;20.80;81.20
5164;DHT22;2601;50.224;10.126;2023-06-14T02:15:37;20.80;81.20
5164;DHT22;2601;50.224;10.126;2023-06-14T02:18:02;20.80;81.40
5164;DHT22;2601;50.224;10.126;2023-06-14T02:20:28;20.80;81.30
5164;DHT22;2601;50.224;10.126;2023-06-14T02:22:54;20.80;81.10
5164;DHT22;2601;50.224;10.126;2023-06-14T02:25:20;20.80;81.00
5164;DHT22;2601;50.224;10.126;2023-06-14T02:27:46;20.80;81.10
5164;DHT22;2601;50.224;10.126;2023-06-14T02:30:12;20.80;81.10
5164;DHT22;2601;50.224;10.126;2023-06-14T02:32:37;20.80;81.20
5164;DHT22;2601;50.224;10.126;2023-06-14T02:35:03;20.80;81.00
5164;DHT22;2601;50.224;10.126;2023-06-14T02:37:29;20.80;81.00
5164;DHT22;2601;50.224;10.126;2023-06-14T02:39:56;20.80;81.00
5164;DHT22;2601;50.224;10.126;2023-06-14T02:42:21;20.80;80.90
5164;DHT22;2601;50.224;10.126;2023-06-14T02:44:47;20.80;80.90
5164;DHT22;2601;50.224;10.126;2023-06-14T02:47:17;20.80;81.10
5164;DHT22;2601;50.224;10.126;2023-06-14T02:49:43;20.80;81.00
5164;DHT22;2601;50.224;10.126;2023-06-14T02:52:08;20.80;81.10
5164;DHT22;2601;50.224;10.126;2023-06-14T02:54:34;20.80;81.00
5164;DHT22;2601;50.224;10.126;2023-06-14T02:57:00;20.80;80.80
5164;DHT22;2601;50.224;10.126;2023-06-14T02:59:25;20.80;81.10
5164;DHT22;2601;50.224;10.126;2023-06-14T03:01:51;20.80;81.00
5164;DHT22;2601;50.224;10.126;2023-06-14T03:04:17;20.80;80.90
5164;DHT22;2601;50.224;10.126;2023-06-14T03:06:43;20.80;81.10
5164;DHT22;2601;50.224;10.126;2023-06-14T03:09:09;20.80;81.00
5164;DHT22;2601;50.224;10.126;2023-06-14T03:11:35;20.80;81.20
5164;DHT22;2601;50.224;10.126;2023-06-14T03:14:01;20.80;81.20
5164;DHT22;2601;50.224;10.126;2023-06-14T03:16:29;20.80;81.00
5164;DHT22;2601;50.224;10.126;2023-06-14T03:18:55;20.80;81.00
5164;DHT22;2601;50.224;10.126;2023-06-14T03:21:21;20.80;80.90
5164;DHT22;2601;50.224;10.126;2023-06-14T03:23:47;20.80;81.00
5164;DHT22;2601;50.224;10.126;2023-06-14T03:26:14;20.80;81.00
5164;DHT22;2601;50.224;10.126;2023-06-14T03:28:41;20.80;80.90
5164;DHT22;2601;50.224;10.126;2023-06-14T03:31:07;20.80;81.00
5164;DHT22;2601;50.224;10.126;2023-06-14T03:33:34;20.80;81.00
5164;DHT22;2601;50.224;10.126;2023-06-14T03:35:59;20.80;80.70
5164;DHT22;2601;50.224;10.126;2023-06-14T03:38:25;20.80;80.80
5164;DHT22;2601;50.224;10.126;2023-06-14T03:40:51;20.70;80.80
5164;DHT22;2601;50.224;10.126;2023-06-14T03:43:16;20.80;80.40
5164;DHT22;2601;50.224;10.126;2023-06-14T03:45:42;20.70;80.80
5164;DHT22;2601;50.224;10.126;2023-06-14T03:48:08;20.70;80.30
5164;DHT22;2601;50.224;10.126;2023-06-14T03:50:34;20.70;80.50
5164;DHT22;2601;50.224;10.126;2023-06-14T03:53:06;20.70;80.60
5164;DHT22;2601;50.224;10.126;2023-06-14T03:55:31;20.70;80.60
5164;DHT22;2601;50.224;10.126;2023-06-14T03:57:58;20.70;80.60
5164;DHT22;2601;50.224;10.126;2023-06-14T04:00:24;20.70;80.50
5164;DHT22;2601;50.224;10.126;2023-06-14T04:02:50;20.70;80.50
5164;DHT22;2601;50.224;10.126;2023-06-14T04:05:16;20.70;80.60
5164;DHT22;2601;50.224;10.126;2023-06-14T04:07:44;20.70;80.50
5164;DHT22;2601;50.224;10.126;2023-06-14T04:10:14;20.70;80.50
5164;DHT22;2601;50.224;10.126;2023-06-14T04:12:40;20.70;80.60
5164;DHT22;2601;50.224;10.126;2023-06-14T04:15:06;20.70;80.50
5164;DHT22;2601;50.224;10.126;2023-06-14T04:17:33;20.70;80.40
5164;DHT22;2601;50.224;10.126;2023-06-14T04:19:59;20.70;80.50
5164;DHT22;2601;50.224;10.126;2023-06-14T04:22:26;20.70;80.60
5164;DHT22;2601;50.224;10.126;2023-06-14T04:24:54;20.70;80.40
5164;DHT22;2601;50.224;10.126;2023-06-14T04:27:25;20.70;80.40
5164;DHT22;2601;50.224;10.126;2023-06-14T04:29:52;20.70;80.30
5164;DHT22;2601;50.224;10.126;2023-06-14T04:32:28;20.70;80.40
5164;DHT22;2601;50.224;10.126;2023-06-14T04:35:06;20.70;80.50
5164;DHT22;2601;50.224;10.126;2023-06-14T04:37:32;20.70;80.60
5164;DHT22;2601;50.224;10.126;2023-06-14T04:39:58;20.70;80.40
5164;DHT22;2601;50.224;10.126;2023-06-14T04:42:24;20.70;80.60
5164;DHT22;2601;50.224;10.126;2023-06-14T04:44:57;20.70;80.50
5164;DHT22;2601;50.224;10.126;2023-06-14T04:47:23;20.70;80.80
5164;DHT22;2601;50.224;10.126;2023-06-14T04:49:55;20.70;81.50
5164;DHT22;2601;50.224;10.126;2023-06-14T04:52:21;20.70;81.00
5164;DHT22;2601;50.224;10.126;2023-06-14T04:54:47;20.70;81.10
5164;DHT22;2601;50.224;10.126;2023-06-14T04:57:12;20.70;81.10
5164;DHT22;2601;50.224;10.126;2023-06-14T04:59:45;20.70;81.10
5164;DHT22;2601;50.224;10.126;2023-06-14T05:02:11;20.70;80.80
5164;DHT22;2601;50.224;10.126;2023-06-14T05:04:37;20.70;81.20
5164;DHT22;2601;50.224;10.126;2023-06-14T05:07:09;20.70;81.30
5164;DHT22;2601;50.224;10.126;2023-06-14T05:09:35;20.70;81.20
5164;DHT22;2601;50.224;10.126;2023-06-14T05:12:01;20.70;81.20
5164;DHT22;2601;50.224;10.126;2023-06-14T05:14:27;20.70;81.30
5164;DHT22;2601;50.224;10.126;2023-06-14T05:16:52;20.70;81.20
5164;DHT22;2601;50.224;10.126;2023-06-14T05:19:19;20.70;81.90
5164;DHT22;2601;50.224;10.126;2023-06-14T05:21:46;20.70;81.60
5164;DHT22;2601;50.224;10.126;2023-06-14T05:24:13;20.70;81.50
5164;DHT22;2601;50.224;10.126;2023-06-14T05:26:38;20.80;81.60
5164;DHT22;2601;50.224;10.126;2023-06-14T05:29:04;20.80;81.60
5164;DHT22;2601;50.224;10.126;2023-06-14T05:31:30;20.80;81.60
5164;DHT22;2601;50.224;10.126;2023-06-14T05:33:56;20.80;81.50
5164;DHT22;2601;50.224;10.126;2023-06-14T05:36:22;20.70;81.50
5164;DHT22;2601;50.224;10.126;2023-06-14T05:38:48;20.80;81.80
5164;DHT22;2601;50.224;10.126;2023-06-14T05:41:13;20.70;81.60
5164;DHT22;2601;50.224;10.126;2023-06-14T05:43:39;20.80;81.80
5164;DHT22;2601;50.224;10.126;2023-06-14T05:46:05;20.80;81.90
5164;DHT22;2601;50.224;10.126;2023-06-14T05:48:30;20.80;81.80
5164;DHT22;2601;50.224;10.126;2023-06-14T05:50:56;20.80;81.80
5164;DHT22;2601;50.224;10.126;2023-06-14T05:53:22;20.80;81.90
5164;DHT22;2601;50.224;10.126;2023-06-14T05:55:49;20.80;81.70
5164;DHT22;2601;50.224;10.126;2023-06-14T05:58:17;20.80;81.60
5164;DHT22;2601;50.224;10.126;2023-06-14T06:00:42;20.80;81.80
5164;DHT22;2601;50.224;10.126;2023-06-14T06:03:08;20.80;82.00
5164;DHT22;2601;50.224;10.126;2023-06-14T06:05:34;20.80;82.00
5164;DHT22;2601;50.224;10.126;2023-06-14T06:08:00;20.80;82.00
5164;DHT22;2601;50.224;10.126;2023-06-14T06:10:25;20.80;82.00
5164;DHT22;2601;50.224;10.126;2023-06-14T06:12:51;20.80;82.00
5164;DHT22;2601;50.224;10.126;2023-06-14T06:15:17;20.80;82.00
5164;DHT22;2601;50.224;10.126;2023-06-14T06:17:44;20.80;81.70
5164;DHT22;2601;50.224;10.126;2023-06-14T06:20:10;20.80;82.10
5164;DHT22;2601;50.224;10.126;2023-06-14T06:22:37;20.70;81.70
5164;DHT22;2601;50.224;10.126;2023-06-14T06:25:02;20.80;82.00
5164;DHT22;2601;50.224;10.126;2023-06-14T06:27:28;20.80;82.20
5164;DHT22;2601;50.224;10.126;2023-06-14T06:29:54;20.80;82.00
5164;DHT22;2601;50.224;10.126;2023-06-14T06:32:19;20.80;82.00
5164;DHT22;2601;50.224;10.126;2023-06-14T06:34:45;20.80;82.00
5164;DHT22;2601;50.224;10.126;2023-06-14T06:37:11;20.80;82.10
5164;DHT22;2601;50.224;10.126;2023-06-14T06:39:36;20.80;81.80
5164;DHT22;2601;50.224;10.126;2023-06-14T06:42:02;20.80;81.90
5164;DHT22;2601;50.224;10.126;2023-06-14T06:44:27;20.80;82.10
5164;DHT22;2601;50.224;10.126;2023-06-14T06:46:53;20.80;81.60
5164;DHT22;2601;50.224;10.126;2023-06-14T06:49:18;20.80;81.90
5164;DHT22;2601;50.224;10.126;2023-06-14T06:51:59;20.80;81.90
5164;DHT22;2601;50.224;10.126;2023-06-14T06:54:25;20.80;82.00
5164;DHT22;2601;50.224;10.126;2023-06-14T06:56:51;20.80;81.90
5164;DHT22;2601;50.224;10.126;2023-06-14T06:59:16;20.80;81.80
5164;DHT22;2601;50.224;10.126;2023-06-14T07:01:42;20.80;81.80
5164;DHT22;2601;50.224;10.126;2023-06-14T07:04:07;20.80;81.80
5164;DHT22;2601;50.224;10.126;2023-06-14T07:06:33;20.80;82.00
5164;DHT22;2601;50.224;10.126;2023-06-14T07:08:58;20.80;82.00
5164;DHT22;2601;50.224;10.126;2023-06-14T07:11:27;20.80;82.10
5164;DHT22;2601;50.224;10.126;2023-06-14T07:13:52;20.80;82.00
5164;DHT22;2601;50.224;10.126;2023-06-14T07:16:18;20.80;82.00
5164;DHT22;2601;50.224;10.126;2023-06-14T07:18:44;20.80;82.20
5164;DHT22;2601;50.224;10.126;2023-06-14T07:21:09;20.80;82.00
5164;DHT22;2601;50.224;10.126;2023-06-14T07:23:35;20.80;82.20
5164;DHT22;2601;50.224;10.126;2023-06-14T07:26:01;20.80;82.20
5164;DHT22;2601;50.224;10.126;2023-06-14T07:28:26;20.80;82.10
5164;DHT22;2601;50.224;10.126;2023-06-14T07:30:52;20.80;82.00
5164;DHT22;2601;50.224;10.126;2023-06-14T07:33:17;20.80;82.10
5164;DHT22;2601;50.224;10.126;2023-06-14T07:35:43;20.80;82.20
5164;DHT22;2601;50.224;10.126;2023-06-14T07:38:08;20.80;82.20
5164;DHT22;2601;50.224;10.126;2023-06-14T07:40:34;20.80;82.20
5164;DHT22;2601;50.224;10.126;2023-06-14T07:42:59;20.80;82.30
5164;DHT22;2601;50.224;10.126;2023-06-14T07:45:26;20.80;82.40
5164;DHT22;2601;50.224;10.126;2023-06-14T07:47:52;20.80;82.30
5164;DHT22;2601;50.224;10.126;2023-06-14T07:50:17;20.80;82.30
5164;DHT22;2601;50.224;10.126;2023-06-14T07:52:44;20.80;82.40
5164;DHT22;2601;50.224;10.126;2023-06-14T07:55:10;20.80;82.50
5164;DHT22;2601;50.224;10.126;2023-06-14T07:57:35;20.80;82.50
5164;DHT22;2601;50.224;10.126;2023-06-14T08:00:02;20.80;82.40
5164;DHT22;2601;50.224;10.126;2023-06-14T08:02:31;20.80;82.50
5164;DHT22;2601;50.224;10.126;2023-06-14T08:04:57;20.80;82.50
5164;DHT22;2601;50.224;10.126;2023-06-14T08:07:22;20.80;82.60
5164;DHT22;2601;50.224;10.126;2023-06-14T08:09:48;20.80;82.50
5164;DHT22;2601;50.224;10.126;2023-06-14T08:12:13;20.80;82.60
5164;DHT22;2601;50.224;10.126;2023-06-14T08:14:39;20.80;82.60
5164;DHT22;2601;50.224;10.126;2023-06-14T08:17:18;20.80;82.60
5164;DHT22;2601;50.224;10.126;2023-06-14T08:19:43;20.80;82.50
5164;DHT22;2601;50.224;10.126;2023-06-14T08:22:09;20.80;82.50
5164;DHT22;2601;50.224;10.126;2023-06-14T08:24:37;20.80;82.40
5164;DHT22;2601;50.224;10.126;2023-06-14T08:27:02;20.80;82.40
5164;DHT22;2601;50.224;10.126;2023-06-14T08:29:28;20.80;82.50
5164;DHT22;2601;50.224;10.126;2023-06-14T08:31:56;20.80;82.50
5164;DHT22;2601;50.224;10.126;2023-06-14T08:34:22;20.80;82.40
5164;DHT22;2601;50.224;10.126;2023-06-14T08:36:50;20.80;82.50
5164;DHT22;2601;50.224;10.126;2023-06-14T08:39:15;20.80;82.50
5164;DHT22;2601;50.224;10.126;2023-06-14T08:41:44;20.80;82.60
5164;DHT22;2601;50.224;10.126;2023-06-14T08:44:11;20.80;82.30
5164;DHT22;2601;50.224;10.126;2023-06-14T08:46:37;20.80;82.60
5164;DHT22;2601;50.224;10.126;2023-06-14T08:49:04;20.80;82.60
5164;DHT22;2601;50.224;10.126;2023-06-14T08:51:32;20.80;82.50
5164;DHT22;2601;50.224;10.126;2023-06-14T08:54:02;20.80;82.60
5164;DHT22;2601;50.224;10.126;2023-06-14T08:56:30;20.80;82.60
5164;DHT22;2601;50.224;10.126;2023-06-14T08:58:57;20.80;82.50
5164;DHT22;2601;50.224;10.126;2023-06-14T09:01:26;20.80;82.50
5164;DHT22;2601;50.224;10.126;2023-06-14T09:03:52;20.80;82.50
5164;DHT22;2601;50.224;10.126;2023-06-14T09:06:21;20.80;82.50
5164;DHT22;2601;50.224;10.126;2023-06-14T09:08:48;20.80;82.60
5164;DHT22;2601;50.224;10.126;2023-06-14T09:11:15;20.80;82.60
5164;DHT22;2601;50.224;10.126;2023-06-14T09:13:41;20.80;82.60
5164;DHT22;2601;50.224;10.126;2023-06-14T09:16:07;20.80;82.60
5164;DHT22;2601;50.224;10.126;2023-06-14T09:18:38;20.80;82.60
5164;DHT22;2601;50.224;10.126;2023-06-14T09:21:06;20.80;82.60
5164;DHT22;2601;50.224;10.126;2023-06-14T09:23:43;20.80;82.60
5164;DHT22;2601;50.224;10.126;2023-06-14T09:26:13;20.80;82.50
5164;DHT22;2601;50.224;10.126;2023-06-14T09:28:46;20.80;82.50
5164;DHT22;2601;50.224;10.126;2023-06-14T09:31:19;20.80;82.60
5164;DHT22;2601;50.224;10.126;2023-06-14T09:33:49;20.80;82.60
5164;DHT22;2601;50.224;10.126;2023-06-14T09:36:22;20.80;82.60
5164;DHT22;2601;50.224;10.126;2023-06-14T09:38:53;20.80;82.20
5164;DHT22;2601;50.224;10.126;2023-06-14T09:41:19;20.80;82.30
5164;DHT22;2601;50.224;10.126;2023-06-14T09:43:46;20.80;82.50
5164;DHT22;2601;50.224;10.126;2023-06-14T09:46:12;20.80;82.60
5164;DHT22;2601;50.224;10.126;2023-06-14T09:48:38;20.80;82.40
5164;DHT22;2601;50.224;10.126;2023-06-14T09:51:09;20.80;82.40
5164;DHT22;2601;50.224;10.126;2023-06-14T09:53:36;20.80;82.30
5164;DHT22;2601;50.224;10.126;2023-06-14T09:56:02;20.80;82.40
5164;DHT22;2601;50.224;10.126;2023-06-14T09:58:30;20.80;82.50
5164;DHT22;2601;50.224;10.126;2023-06-14T10:00:58;20.80;82.40
5164;DHT22;2601;50.224;10.126;2023-06-14T10:03:28;20.80;82.40
5164;DHT22;2601;50.224;10.126;2023-06-14T10:05:55;20.80;82.40
5164;DHT22;2601;50.224;10.126;2023-06-14T10:08:27;20.80;82.40
5164;DHT22;2601;50.224;10.126;2023-06-14T10:10:56;20.80;82.40
5164;DHT22;2601;50.224;10.126;2023-06-14T10:13:22;20.80;82.50
5164;DHT22;2601;50.224;10.126;2023-06-14T10:15:51;20.80;82.50
5164;DHT22;2601;50.224;10.126;2023-06-14T10:18:27;20.80;82.50
5164;DHT22;2601;50.224;10.126;2023-06-14T10:21:13;20.80;82.40
5164;DHT22;2601;50.224;10.126;2023-06-14T10:23:44;20.80;82.40
5164;DHT22;2601;50.224;10.126;2023-06-14T10:26:21;20.80;82.50
5164;DHT22;2601;50.224;10.126;2023-06-14T10:29:09;20.80;82.40
5164;DHT22;2601;50.224;10.126;2023-06-14T10:31:46;20.80;82.50
5164;DHT22;2601;50.224;10.126;2023-06-14T10:34:20;20.80;82.40
5164;DHT22;2601;50.224;10.126;2023-06-14T10:39:25;20.80;82.40
5164;DHT22;2601;50.224;10.126;2023-06-14T10:41:55;20.80;82.50
5164;DHT22;2601;50.224;10.126;2023-06-14T10:49:16;20.80;82.40
5164;DHT22;2601;50.224;10.126;2023-06-14T10:51:46;20.80;82.30
5164;DHT22;2601;50.224;10.126;2023-06-14T10:54:15;20.80;82.40
5164;DHT22;2601;50.224;10.126;2023-06-14T10:56:51;20.80;82.40
5164;DHT22;2601;50.224;10.126;2023-06-14T10:59:18;20.80;82.30
5164;DHT22;2601;50.224;10.126;2023-06-14T11:01:57;20.80;82.40
5164;DHT22;2601;50.224;10.126;2023-06-14T11:04:52;20.80;82.30
5164;DHT22;2601;50.224;10.126;2023-06-14T11:10:37;20.80;82.30
5164;DHT22;2601;50.224;10.126;2023-06-14T11:13:04;20.80;82.30
5164;DHT22;2601;50.224;10.126;2023-06-14T11:15:34;20.80;82.40
5164;DHT22;2601;50.224;10.126;2023-06-14T11:18:05;20.80;82.40
5164;DHT22;2601;50.224;10.126;2023-06-14T11:20:33;20.80;82.30
5164;DHT22;2601;50.224;10.126;2023-06-14T11:22:59;20.80;82.40
5164;DHT22;2601;50.224;10.126;2023-06-14T11:25:25;20.80;82.30
5164;DHT22;2601;50.224;10.126;2023-06-14T11:27:52;20.80;82.40
5164;DHT22;2601;50.224;10.126;2023-06-14T11:30:18;20.80;82.40
5164;DHT22;2601;50.224;10.126;2023-06-14T11:32:47;20.80;82.30
5164;DHT22;2601;50.224;10.126;2023-06-14T11:35:13;20.80;82.30
5164;DHT22;2601;50.224;10.126;2023-06-14T11:37:39;20.80;82.30
5164;DHT22;2601;50.224;10.126;2023-06-14T11:40:08;20.80;82.40
5164;DHT22;2601;50.224;10.126;2023-06-14T11:42:35;20.80;82.40
5164;DHT22;2601;50.224;10.126;2023-06-14T11:45:02;20.80;82.30
5164;DHT22;2601;50.224;10.126;2023-06-14T11:47:35;20.80;82.30
5164;DHT22;2601;50.224;10.126;2023-06-14T11:50:02;20.80;82.40
5164;DHT22;2601;50.224;10.126;2023-06-14T11:52:28;20.80;82.40
5164;DHT22;2601;50.224;10.126;2023-06-14T11:54:54;20.80;82.40
5164;DHT22;2601;50.224;10.126;2023-06-14T11:57:20;20.80;82.40
5164;DHT22;2601;50.224;10.126;2023-06-14T11:59:46;20.80;82.40
5164;DHT22;2601;50.224;10.126;2023-06-14T12:02:15;20.80;82.40
5164;DHT22;2601;50.224;10.126;2023-06-14T12:04:42;20.80;82.40
5164;DHT22;2601;50.224;10.126;2023-06-14T12:07:15;20.80;82.40
5164;DHT22;2601;50.224;10.126;2023-06-14T12:09:46;20.80;82.40
5164;DHT22;2601;50.224;10.126;2023-06-14T12:12:35;20.80;82.40
5164;DHT22;2601;50.224;10.126;2023-06-14T12:15:03;20.80;82.40
5164;DHT22;2601;50.224;10.126;2023-06-14T12:17:34;20.80;82.30
5164;DHT22;2601;50.224;10.126;2023-06-14T12:20:05;20.80;82.30
5164;DHT22;2601;50.224;10.126;2023-06-14T12:22:34;20.90;82.50
5164;DHT22;2601;50.224;10.126;2023-06-14T12:24:59;20.80;82.30
5164;DHT22;2601;50.224;10.126;2023-06-14T12:27:25;20.80;82.30
5164;DHT22;2601;50.224;10.126;2023-06-14T12:30:03;20.80;82.30
5164;DHT22;2601;50.224;10.126;2023-06-14T12:32:30;20.80;82.30
5164;DHT22;2601;50.224;10.126;2023-06-14T12:34:55;20.80;82.30
5164;DHT22;2601;50.224;10.126;2023-06-14T12:37:21;20.80;82.30
5164;DHT22;2601;50.224;10.126;2023-06-14T12:39:47;20.80;82.20
5164;DHT22;2601;50.224;10.126;2023-06-14T12:42:12;20.80;82.20
5164;DHT22;2601;50.224;10.126;2023-06-14T12:44:39;20.80;82.20
5164;DHT22;2601;50.224;10.126;2023-06-14T12:47:07;20.80;82.20
5164;DHT22;2601;50.224;10.126;2023-06-14T12:49:33;20.80;82.20
5164;DHT22;2601;50.224;10.126;2023-06-14T12:51:58;20.80;82.20
5164;DHT22;2601;50.224;10.126;2023-06-14T12:54:24;20.90;82.30
5164;DHT22;2601;50.224;10.126;2023-06-14T12:56:51;20.80;82.20
5164;DHT22;2601;50.224;10.126;2023-06-14T12:59:17;20.80;82.20
5164;DHT22;2601;50.224;10.126;2023-06-14T13:01:43;20.80;82.20
5164;DHT22;2601;50.224;10.126;2023-06-14T13:04:10;20.90;82.30
5164;DHT22;2601;50.224;10.126;2023-06-14T13:06:35;20.90;82.30
5164;DHT22;2601;50.224;10.126;2023-06-14T13:09:01;20.90;82.40
5164;DHT22;2601;50.224;10.126;2023-06-14T13:11:27;20.80;82.30
5164;DHT22;2601;50.224;10.126;2023-06-14T13:13:52;20.80;82.20
5164;DHT22;2601;50.224;10.126;2023-06-14T13:16:18;20.80;82.20
5164;DHT22;2601;50.224;10.126;2023-06-14T13:18:43;20.90;82.30
5164;DHT22;2601;50.224;10.126;2023-06-14T13:21:09;20.80;82.20
5164;DHT22;2601;50.224;10.126;2023-06-14T13:23:34;20.90;82.40
5164;DHT22;2601;50.224;10.126;2023-06-14T13:26:00;20.90;82.30
5164;DHT22;2601;50.224;10.126;2023-06-14T13:28:25;20.90;82.30
5164;DHT22;2601;50.224;10.126;2023-06-14T13:30:51;20.80;82.20
5164;DHT22;2601;50.224;10.126;2023-06-14T13:33:16;20.80;82.20
5164;DHT22;2601;50.224;10.126;2023-06-14T13:35:42;20.80;82.20
5164;DHT22;2601;50.224;10.126;2023-06-14T13:38:09;20.80;82.20
5164;DHT22;2601;50.224;10.126;2023-06-14T13:40:36;20.80;82.30
5164;DHT22;2601;50.224;10.126;2023-06-14T13:43:02;20.90;82.40
5164;DHT22;2601;50.224;10.126;2023-06-14T13:45:27;20.90;82.30
5164;DHT22;2601;50.224;10.126;2023-06-14T13:47:53;20.90;82.30
5164;DHT22;2601;50.224;10.126;2023-06-14T13:50:20;20.90;82.30
5164;DHT22;2601;50.224;10.126;2023-06-14T13:52:45;20.90;82.20
5164;DHT22;2601;50.224;10.126;2023-06-14T13:55:11;20.90;82.20
5164;DHT22;2601;50.224;10.126;2023-06-14T13:57:37;20.90;82.30
5164;DHT22;2601;50.224;10.126;2023-06-14T14:00:03;20.90;82.30
5164;DHT22;2601;50.224;10.126;2023-06-14T14:02:29;20.90;82.20
5164;DHT22;2601;50.224;10.126;2023-06-14T14:04:55;20.90;82.20
5164;DHT22;2601;50.224;10.126;2023-06-14T14:07:21;20.90;82.20
5164;DHT22;2601;50.224;10.126;2023-06-14T14:09:47;20.90;82.20
5164;DHT22;2601;50.224;10.126;2023-06-14T14:12:13;20.90;82.20
5164;DHT22;2601;50.224;10.126;2023-06-14T14:14:39;20.80;82.10
5164;DHT22;2601;50.224;10.126;2023-06-14T14:17:05;20.90;82.20
5164;DHT22;2601;50.224;10.126;2023-06-14T14:19:32;20.90;82.20
5164;DHT22;2601;50.224;10.126;2023-06-14T14:21:57;20.90;82.20
5164;DHT22;2601;50.224;10.126;2023-06-14T14:24:23;20.90;82.20
5164;DHT22;2601;50.224;10.126;2023-06-14T14:26:49;20.90;82.20
5164;DHT22;2601;50.224;10.126;2023-06-14T14:29:15;20.90;82.20
5164;DHT22;2601;50.224;10.126;2023-06-14T14:31:41;20.90;82.30
5164;DHT22;2601;50.224;10.126;2023-06-14T14:34:06;20.90;82.30
5164;DHT22;2601;50.224;10.126;2023-06-14T14:36:32;20.90;82.30
5164;DHT22;2601;50.224;10.126;2023-06-14T14:39:03;20.90;82.30
5164;DHT22;2601;50.224;10.126;2023-06-14T14:41:29;20.90;82.60
5164;DHT22;2601;50.224;10.126;2023-06-14T14:43:55;20.90;82.30
5164;DHT22;2601;50.224;10.126;2023-06-14T14:46:20;20.90;82.30
5164;DHT22;2601;50.224;10.126;2023-06-14T14:48:46;20.90;82.30
5164;DHT22;2601;50.224;10.126;2023-06-14T14:51:12;20.90;82.40
5164;DHT22;2601;50.224;10.126;2023-06-14T14:53:37;20.90;82.30
5164;DHT22;2601;50.224;10.126;2023-06-14T14:56:03;20.90;82.30
5164;DHT22;2601;50.224;10.126;2023-06-14T14:58:28;20.90;82.20
5164;DHT22;2601;50.224;10.126;2023-06-14T15:00:54;20.90;82.30
5164;DHT22;2601;50.224;10.126;2023-06-14T15:03:20;20.90;82.20
5164;DHT22;2601;50.224;10.126;2023-06-14T15:05:46;20.90;82.20
5164;DHT22;2601;50.224;10.126;2023-06-14T15:08:12;20.90;82.30
5164;DHT22;2601;50.224;10.126;2023-06-14T15:10:41;20.90;82.30
5164;DHT22;2601;50.224;10.126;2023-06-14T15:13:10;20.90;82.30
5164;DHT22;2601;50.224;10.126;2023-06-14T15:15:36;20.90;82.30
5164;DHT22;2601;50.224;10.126;2023-06-14T15:18:02;20.90;82.30
5164;DHT22;2601;50.224;10.126;2023-06-14T15:20:27;20.90;82.30
5164;DHT22;2601;50.224;10.126;2023-06-14T15:22:54;20.90;82.40
5164;DHT22;2601;50.224;10.126;2023-06-14T15:25:27;20.90;82.30
5164;DHT22;2601;50.224;10.126;2023-06-14T15:27:52;20.90;82.30
5164;DHT22;2601;50.224;10.126;2023-06-14T15:30:18;20.90;82.40
5164;DHT22;2601;50.224;10.126;2023-06-14T15:32:43;20.90;83.00
5164;DHT22;2601;50.224;10.126;2023-06-14T15:35:09;20.90;82.40
5164;DHT22;2601;50.224;10.126;2023-06-14T15:37:34;20.90;82.40
5164;DHT22;2601;50.224;10.126;2023-06-14T15:40:00;20.90;82.50
5164;DHT22;2601;50.224;10.126;2023-06-14T15:42:26;20.90;82.40
5164;DHT22;2601;50.224;10.126;2023-06-14T15:44:51;20.90;82.40
5164;DHT22;2601;50.224;10.126;2023-06-14T15:47:17;20.90;82.40
5164;DHT22;2601;50.224;10.126;2023-06-14T15:49:42;20.90;82.40
5164;DHT22;2601;50.224;10.126;2023-06-14T15:52:08;20.90;82.40
5164;DHT22;2601;50.224;10.126;2023-06-14T15:54:33;20.90;82.50
5164;DHT22;2601;50.224;10.126;2023-06-14T15:56:59;20.90;82.40